sensor_id;sensor_type;location;lat;lon;timestamp;pressure;altitude;pressure_sealevel;temperature
53412;BMP280;39307;52.870;13.660;2023-08-06T00:00:29;100229.06;;;16.73
53412;BMP280;39307;52.870;13.660;2023-08-06T00:02:55;100230.91;;;16.72
53412;BMP280;39307;52.870;13.660;2023-08-06T00:05:21;100229.31;;;16.71
53412;BMP280;39307;52.870;13.660;2023-08-06T00:07:48;100231.47;;;16.74
53412;BMP280;39307;52.870;13.660;2023-08-06T00:10:14;100229.06;;;16.73
53412;BMP280;39307;52.870;13.660;2023-08-06T00:12:41;100242.06;;;16.74
53412;BMP280;39307;52.870;13.660;2023-08-06T00:15:08;100234.13;;;16.74
53412;BMP280;39307;52.870;13.660;2023-08-06T00:17:34;100234.13;;;16.74
53412;BMP280;39307;52.870;13.660;2023-08-06T00:20:01;100243.88;;;16.74
53412;BMP280;39307;52.870;13.660;2023-08-06T00:22:28;100238.81;;;16.72
53412;BMP280;39307;52.870;13.660;2023-08-06T00:24:54;100241.94;;;16.69
53412;BMP280;39307;52.870;13.660;2023-08-06T00:27:20;100238.50;;;16.69
53412;BMP280;39307;52.870;13.660;2023-08-06T00:29:47;100225.28;;;16.69
53412;BMP280;39307;52.870;13.660;2023-08-06T00:32:13;100225.28;;;16.69
53412;BMP280;39307;52.870;13.660;2023-08-06T00:34:39;100221.84;;;16.68
53412;BMP280;39307;52.870;13.660;2023-08-06T00:37:05;100221.59;;;16.70
53412;BMP280;39307;52.870;13.660;2023-08-06T00:39:31;100212.88;;;16.69
53412;BMP280;39307;52.870;13.660;2023-08-06T00:41:58;100208.63;;;16.68
53412;BMP280;39307;52.870;13.660;2023-08-06T00:44:24;100204.34;;;16.67
53412;BMP280;39307;52.870;13.660;2023-08-06T00:46:50;100204.81;;;16.64
53412;BMP280;39307;52.870;13.660;2023-08-06T00:49:16;100205.06;;;16.63
53412;BMP280;39307;52.870;13.660;2023-08-06T00:51:43;100202.44;;;16.63
53412;BMP280;39307;52.870;13.660;2023-08-06T00:54:10;100194.50;;;16.63
53412;BMP280;39307;52.870;13.660;2023-08-06T00:56:37;100203.00;;;16.65
53412;BMP280;39307;52.870;13.660;2023-08-06T00:59:07;100197.72;;;16.65
53412;BMP280;39307;52.870;13.660;2023-08-06T01:01:33;100192.19;;;16.66
53412;BMP280;39307;52.870;13.660;2023-08-06T01:03:59;100196.09;;;16.64
53412;BMP280;39307;52.870;13.660;2023-08-06T01:06:46;100197.72;;;16.65
53412;BMP280;39307;52.870;13.660;2023-08-06T01:12:25;100200.59;;;16.63
53412;BMP280;39307;52.870;13.660;2023-08-06T01:15:11;100197.94;;;16.63
53412;BMP280;39307;52.870;13.660;2023-08-06T01:17:40;100196.88;;;16.64
53412;BMP280;39307;52.870;13.660;2023-08-06T01:20:07;100196.88;;;16.64
53412;BMP280;39307;52.870;13.660;2023-08-06T01:22:33;100190.25;;;16.62
53412;BMP280;39307;52.870;13.660;2023-08-06T01:24:59;100190.00;;;16.63
53412;BMP280;39307;52.870;13.660;2023-08-06T01:27:58;100192.44;;;16.65
53412;BMP280;39307;52.870;13.660;2023-08-06T01:30:30;100188.75;;;16.66
53412;BMP280;39307;52.870;13.660;2023-08-06T01:33:00;100192.97;;;16.67
53412;BMP280;39307;52.870;13.660;2023-08-06T01:35:27;100181.41;;;16.68
53412;BMP280;39307;52.870;13.660;2023-08-06T01:37:54;100183.00;;;16.69
53412;BMP280;39307;52.870;13.660;2023-08-06T01:40:21;100181.41;;;16.68
53412;BMP280;39307;52.870;13.660;2023-08-06T01:42:47;100186.69;;;16.68
53412;BMP280;39307;52.870;13.660;2023-08-06T01:45:14;100170.25;;;16.66
53412;BMP280;39307;52.870;13.660;2023-08-06T01:47:40;100173.22;;;16.69
53412;BMP280;39307;52.870;13.660;2023-08-06T01:50:06;100169.53;;;16.70
53412;BMP280;39307;52.870;13.660;2023-08-06T01:52:33;100165.53;;;16.68
53412;BMP280;39307;52.870;13.660;2023-08-06T01:54:59;100169.19;;;16.67
53412;BMP280;39307;52.870;13.660;2023-08-06T01:57:25;100171.84;;;16.67
53412;BMP280;39307;52.870;13.660;2023-08-06T01:59:51;100167.03;;;16.64
53412;BMP280;39307;52.870;13.660;2023-08-06T02:02:18;100168.06;;;16.63
53412;BMP280;39307;52.870;13.660;2023-08-06T02:04:44;100164.06;;;16.60
53412;BMP280;39307;52.870;13.660;2023-08-06T02:07:10;100154.53;;;16.59
53412;BMP280;39307;52.870;13.660;2023-08-06T02:09:36;100151.88;;;16.59
53412;BMP280;39307;52.870;13.660;2023-08-06T02:12:03;100141.53;;;16.58
53412;BMP280;39307;52.870;13.660;2023-08-06T02:14:29;100138.09;;;16.57
53412;BMP280;39307;52.870;13.660;2023-08-06T02:16:55;100144.19;;;16.58
53412;BMP280;39307;52.870;13.660;2023-08-06T02:19:22;100144.44;;;16.56
53412;BMP280;39307;52.870;13.660;2023-08-06T02:21:48;100142.81;;;16.55
53412;BMP280;39307;52.870;13.660;2023-08-06T02:24:14;100130.88;;;16.53
53412;BMP280;39307;52.870;13.660;2023-08-06T02:26:40;100126.63;;;16.52
53412;BMP280;39307;52.870;13.660;2023-08-06T02:29:07;100126.63;;;16.52
53412;BMP280;39307;52.870;13.660;2023-08-06T02:31:33;100120.78;;;16.50
53412;BMP280;39307;52.870;13.660;2023-08-06T02:33:59;100118.38;;;16.48
53412;BMP280;39307;52.870;13.660;2023-08-06T02:36:25;100118.13;;;16.50
53412;BMP280;39307;52.870;13.660;2023-08-06T02:38:52;100104.13;;;16.49
53412;BMP280;39307;52.870;13.660;2023-08-06T02:41:18;100107.31;;;16.51
53412;BMP280;39307;52.870;13.660;2023-08-06T02:43:44;100104.69;;;16.51
53412;BMP280;39307;52.870;13.660;2023-08-06T02:46:10;100102.84;;;16.52
53412;BMP280;39307;52.870;13.660;2023-08-06T02:48:36;100101.81;;;16.53
53412;BMP280;39307;52.870;13.660;2023-08-06T02:51:03;100102.84;;;16.52
53412;BMP280;39307;52.870;13.660;2023-08-06T02:53:29;100097.56;;;16.52
53412;BMP280;39307;52.870;13.660;2023-08-06T02:55:55;100096.75;;;16.51
53412;BMP280;39307;52.870;13.660;2023-08-06T02:58:21;100091.47;;;16.51
53412;BMP280;39307;52.870;13.660;2023-08-06T03:01:04;100096.75;;;16.51
53412;BMP280;39307;52.870;13.660;2023-08-06T03:03:31;100088.63;;;16.53
53412;BMP280;39307;52.870;13.660;2023-08-06T03:05:57;100090.47;;;16.52
53412;BMP280;39307;52.870;13.660;2023-08-06T03:08:23;100093.91;;;16.53
53412;BMP280;39307;52.870;13.660;2023-08-06T03:10:50;100099.19;;;16.53
53412;BMP280;39307;52.870;13.660;2023-08-06T03:13:17;100091.25;;;16.53
53412;BMP280;39307;52.870;13.660;2023-08-06T03:15:51;100092.06;;;16.53
53412;BMP280;39307;52.870;13.660;2023-08-06T03:18:18;100094.13;;;16.51
53412;BMP280;39307;52.870;13.660;2023-08-06T03:20:45;100092.28;;;16.52
53412;BMP280;39307;52.870;13.660;2023-08-06T03:23:11;100091.47;;;16.51
53412;BMP280;39307;52.870;13.660;2023-08-06T03:25:37;100087.25;;;16.50
53412;BMP280;39307;52.870;13.660;2023-08-06T03:28:03;100089.88;;;16.50
53412;BMP280;39307;52.870;13.660;2023-08-06T03:30:30;100080.34;;;16.49
53412;BMP280;39307;52.870;13.660;2023-08-06T03:32:56;100086.66;;;16.48
53412;BMP280;39307;52.870;13.660;2023-08-06T03:35:22;100084.81;;;16.49
53412;BMP280;39307;52.870;13.660;2023-08-06T03:37:48;100074.50;;;16.47
53412;BMP280;39307;52.870;13.660;2023-08-06T03:40:15;100067.63;;;16.47
53412;BMP280;39307;52.870;13.660;2023-08-06T03:42:41;100062.56;;;16.45
53412;BMP280;39307;52.870;13.660;2023-08-06T03:45:07;100055.44;;;16.46
53412;BMP280;39307;52.870;13.660;2023-08-06T03:47:34;100051.78;;;16.47
53412;BMP280;39307;52.870;13.660;2023-08-06T03:50:00;100050.41;;;16.44
53412;BMP280;39307;52.870;13.660;2023-08-06T03:52:26;100052.25;;;16.44
53412;BMP280;39307;52.870;13.660;2023-08-06T03:54:53;100047.16;;;16.42
53412;BMP280;39307;52.870;13.660;2023-08-06T03:57:19;100032.59;;;16.40
53412;BMP280;39307;52.870;13.660;2023-08-06T03:59:45;100030.75;;;16.40
53412;BMP280;39307;52.870;13.660;2023-08-06T04:02:11;100032.84;;;16.38
53412;BMP280;39307;52.870;13.660;2023-08-06T04:04:37;100034.44;;;16.39
53412;BMP280;39307;52.870;13.660;2023-08-06T04:07:04;100032.84;;;16.38
53412;BMP280;39307;52.870;13.660;2023-08-06T04:09:30;100025.72;;;16.39
53412;BMP280;39307;52.870;13.660;2023-08-06T04:11:56;100024.13;;;16.38
53412;BMP280;39307;52.870;13.660;2023-08-06T04:14:22;100023.28;;;16.37
53412;BMP280;39307;52.870;13.660;2023-08-06T04:16:49;100016.66;;;16.35
53412;BMP280;39307;52.870;13.660;2023-08-06T04:19:15;100012.66;;;16.32
53412;BMP280;39307;52.870;13.660;2023-08-06T04:21:41;100016.34;;;16.31
53412;BMP280;39307;52.870;13.660;2023-08-06T04:24:08;100019.78;;;16.32
53412;BMP280;39307;52.870;13.660;2023-08-06T04:26:34;100015.50;;;16.31
53412;BMP280;39307;52.870;13.660;2023-08-06T04:29:00;100006.78;;;16.30
53412;BMP280;39307;52.870;13.660;2023-08-06T04:31:26;100005.19;;;16.29
53412;BMP280;39307;52.870;13.660;2023-08-06T04:33:52;100001.50;;;16.30
53412;BMP280;39307;52.870;13.660;2023-08-06T04:36:18;99996.22;;;16.30
53412;BMP280;39307;52.870;13.660;2023-08-06T04:38:44;99998.88;;;16.30
53412;BMP280;39307;52.870;13.660;2023-08-06T04:41:11;99999.66;;;16.31
53412;BMP280;39307;52.870;13.660;2023-08-06T04:43:37;99992.00;;;16.29
53412;BMP280;39307;52.870;13.660;2023-08-06T04:46:03;99980.38;;;16.30
53412;BMP280;39307;52.870;13.660;2023-08-06T04:48:29;99986.72;;;16.29
53412;BMP280;39307;52.870;13.660;2023-08-06T04:50:56;99967.97;;;16.31
53412;BMP280;39307;52.870;13.660;2023-08-06T04:53:22;99975.69;;;16.32
53412;BMP280;39307;52.870;13.660;2023-08-06T04:55:48;99973.25;;;16.31
53412;BMP280;39307;52.870;13.660;2023-08-06T04:58:15;99978.53;;;16.31
53412;BMP280;39307;52.870;13.660;2023-08-06T05:00:41;99969.59;;;16.32
53412;BMP280;39307;52.870;13.660;2023-08-06T05:03:07;99972.25;;;16.32
53412;BMP280;39307;52.870;13.660;2023-08-06T05:05:33;99982.00;;;16.31
53412;BMP280;39307;52.870;13.660;2023-08-06T05:08:00;99966.97;;;16.32
53412;BMP280;39307;52.870;13.660;2023-08-06T05:10:26;99967.75;;;16.32
53412;BMP280;39307;52.870;13.660;2023-08-06T05:12:53;99973.84;;;16.33
53412;BMP280;39307;52.870;13.660;2023-08-06T05:15:27;99974.41;;;16.35
53412;BMP280;39307;52.870;13.660;2023-08-06T05:17:57;99968.88;;;16.36
53412;BMP280;39307;52.870;13.660;2023-08-06T05:20:31;99969.13;;;16.35
53412;BMP280;39307;52.870;13.660;2023-08-06T05:23:07;99965.69;;;16.34
53412;BMP280;39307;52.870;13.660;2023-08-06T05:25:42;99964.63;;;16.35
53412;BMP280;39307;52.870;13.660;2023-08-06T05:28:12;99951.44;;;16.35
53412;BMP280;39307;52.870;13.660;2023-08-06T05:30:49;99960.16;;;16.36
53412;BMP280;39307;52.870;13.660;2023-08-06T05:33:18;99947.75;;;16.36
53412;BMP280;39307;52.870;13.660;2023-08-06T05:35:52;99940.88;;;16.35
53412;BMP280;39307;52.870;13.660;2023-08-06T05:38:19;99940.63;;;16.37
53412;BMP280;39307;52.870;13.660;2023-08-06T05:40:46;99932.94;;;16.35
53412;BMP280;39307;52.870;13.660;2023-08-06T05:43:12;99936.38;;;16.36
53412;BMP280;39307;52.870;13.660;2023-08-06T05:45:38;99931.09;;;16.36
53412;BMP280;39307;52.870;13.660;2023-08-06T05:48:04;99936.13;;;16.37
53412;BMP280;39307;52.870;13.660;2023-08-06T05:50:31;99926.63;;;16.36
53412;BMP280;39307;52.870;13.660;2023-08-06T05:52:57;99929.03;;;16.38
53412;BMP280;39307;52.870;13.660;2023-08-06T05:55:23;99937.75;;;16.38
53412;BMP280;39307;52.870;13.660;2023-08-06T05:57:49;99924.28;;;16.40
53412;BMP280;39307;52.870;13.660;2023-08-06T06:00:15;99926.72;;;16.41
53412;BMP280;39307;52.870;13.660;2023-08-06T06:02:42;99936.47;;;16.41
53412;BMP280;39307;52.870;13.660;2023-08-06T06:05:08;99927.72;;;16.40
53412;BMP280;39307;52.870;13.660;2023-08-06T06:07:34;99924.06;;;16.41
53412;BMP280;39307;52.870;13.660;2023-08-06T06:10:00;99923.03;;;16.42
53412;BMP280;39307;52.870;13.660;2023-08-06T06:12:27;99924.63;;;16.43
53412;BMP280;39307;52.870;13.660;2023-08-06T06:14:53;99921.44;;;16.41
53412;BMP280;39307;52.870;13.660;2023-08-06T06:17:19;99923.03;;;16.42
53412;BMP280;39307;52.870;13.660;2023-08-06T06:19:45;99911.88;;;16.40
53412;BMP280;39307;52.870;13.660;2023-08-06T06:22:12;99911.66;;;16.42
53412;BMP280;39307;52.870;13.660;2023-08-06T06:24:38;99909.81;;;16.42
53412;BMP280;39307;52.870;13.660;2023-08-06T06:27:05;99913.25;;;16.43
53412;BMP280;39307;52.870;13.660;2023-08-06T06:29:31;99907.75;;;16.44
53412;BMP280;39307;52.870;13.660;2023-08-06T06:31:57;99906.69;;;16.45
53412;BMP280;39307;52.870;13.660;2023-08-06T06:34:23;99908.88;;;16.48
53412;BMP280;39307;52.870;13.660;2023-08-06T06:36:49;99907.00;;;16.48
53412;BMP280;39307;52.870;13.660;2023-08-06T06:39:17;99894.84;;;16.47
53412;BMP280;39307;52.870;13.660;2023-08-06T06:41:43;99895.66;;;16.48
53412;BMP280;39307;52.870;13.660;2023-08-06T06:44:10;99897.25;;;16.49
53412;BMP280;39307;52.870;13.660;2023-08-06T06:46:36;99887.25;;;16.51
53412;BMP280;39307;52.870;13.660;2023-08-06T06:49:02;99889.41;;;16.54
53412;BMP280;39307;52.870;13.660;2023-08-06T06:51:28;99887.34;;;16.56
53412;BMP280;39307;52.870;13.660;2023-08-06T06:53:54;99890.31;;;16.59
53412;BMP280;39307;52.870;13.660;2023-08-06T06:56:21;99883.38;;;16.58
53412;BMP280;39307;52.870;13.660;2023-08-06T06:58:47;99892.69;;;16.61
53412;BMP280;39307;52.870;13.660;2023-08-06T07:01:13;99889.81;;;16.62
53412;BMP280;39307;52.870;13.660;2023-08-06T07:03:39;99892.78;;;16.66
53412;BMP280;39307;52.870;13.660;2023-08-06T07:06:06;99888.28;;;16.66
53412;BMP280;39307;52.870;13.660;2023-08-06T07:08:33;99893.09;;;16.69
53412;BMP280;39307;52.870;13.660;2023-08-06T07:11:05;99893.41;;;16.73
53412;BMP280;39307;52.870;13.660;2023-08-06T07:13:33;99886.84;;;16.75
53412;BMP280;39307;52.870;13.660;2023-08-06T07:15:59;99892.94;;;16.75
53412;BMP280;39307;52.870;13.660;2023-08-06T07:18:26;99882.34;;;16.75
53412;BMP280;39307;52.870;13.660;2023-08-06T07:20:53;99880.59;;;16.81
53412;BMP280;39307;52.870;13.660;2023-08-06T07:23:24;99884.59;;;16.83
53412;BMP280;39307;52.870;13.660;2023-08-06T07:25:51;99883.31;;;16.86
53412;BMP280;39307;52.870;13.660;2023-08-06T07:28:18;99892.03;;;16.86
53412;BMP280;39307;52.870;13.660;2023-08-06T07:30:45;99886.50;;;16.88
53412;BMP280;39307;52.870;13.660;2023-08-06T07:33:11;99887.63;;;16.92
53412;BMP280;39307;52.870;13.660;2023-08-06T07:35:38;99884.97;;;16.92
53412;BMP280;39307;52.870;13.660;2023-08-06T07:38:04;99883.69;;;16.94
53412;BMP280;39307;52.870;13.660;2023-08-06T07:40:30;99882.19;;;16.98
53412;BMP280;39307;52.870;13.660;2023-08-06T07:42:57;99878.47;;;16.99
53412;BMP280;39307;52.870;13.660;2023-08-06T07:45:24;99879.84;;;17.02
53412;BMP280;39307;52.870;13.660;2023-08-06T07:47:50;99882.00;;;17.04
53412;BMP280;39307;52.870;13.660;2023-08-06T07:50:16;99880.38;;;17.03
53412;BMP280;39307;52.870;13.660;2023-08-06T07:52:42;99880.38;;;17.03
53412;BMP280;39307;52.870;13.660;2023-08-06T07:55:08;99878.09;;;17.07
53412;BMP280;39307;52.870;13.660;2023-08-06T07:57:35;99882.31;;;17.08
53412;BMP280;39307;52.870;13.660;2023-08-06T08:00:01;99874.94;;;17.10
53412;BMP280;39307;52.870;13.660;2023-08-06T08:02:27;99876.81;;;17.09
53412;BMP280;39307;52.870;13.660;2023-08-06T08:05:00;99873.13;;;17.10
53412;BMP280;39307;52.870;13.660;2023-08-06T08:07:26;99870.78;;;17.14
53412;BMP280;39307;52.870;13.660;2023-08-06T08:09:52;99882.66;;;17.11
53412;BMP280;39307;52.870;13.660;2023-08-06T08:12:19;99865.72;;;17.12
53412;BMP280;39307;52.870;13.660;2023-08-06T08:14:45;99867.09;;;17.15
53412;BMP280;39307;52.870;13.660;2023-08-06T08:17:11;99859.16;;;17.15
53412;BMP280;39307;52.870;13.660;2023-08-06T08:19:38;99859.25;;;17.20
53412;BMP280;39307;52.870;13.660;2023-08-06T08:22:05;99851.34;;;17.25
53412;BMP280;39307;52.870;13.660;2023-08-06T08:24:31;99855.91;;;17.29
53412;BMP280;39307;52.870;13.660;2023-08-06T08:26:57;99847.22;;;17.33
53412;BMP280;39307;52.870;13.660;2023-08-06T08:29:23;99849.38;;;17.36
53412;BMP280;39307;52.870;13.660;2023-08-06T08:31:50;99847.81;;;17.35
53412;BMP280;39307;52.870;13.660;2023-08-06T08:34:17;99845.72;;;17.37
53412;BMP280;39307;52.870;13.660;2023-08-06T08:36:43;99840.72;;;17.41
53412;BMP280;39307;52.870;13.660;2023-08-06T08:39:10;99843.38;;;17.41
53412;BMP280;39307;52.870;13.660;2023-08-06T08:41:37;99835.44;;;17.41
53412;BMP280;39307;52.870;13.660;2023-08-06T08:44:07;99833.50;;;17.36
53412;BMP280;39307;52.870;13.660;2023-08-06T08:46:35;99832.50;;;17.37
53412;BMP280;39307;52.870;13.660;2023-08-06T08:49:02;99826.44;;;17.42
53412;BMP280;39307;52.870;13.660;2023-08-06T08:51:29;99821.47;;;17.45
53412;BMP280;39307;52.870;13.660;2023-08-06T08:53:56;99815.09;;;17.46
53412;BMP280;39307;52.870;13.660;2023-08-06T08:56:23;99811.19;;;17.49
53412;BMP280;39307;52.870;13.660;2023-08-06T08:58:49;99813.28;;;17.47
53412;BMP280;39307;52.870;13.660;2023-08-06T09:01:16;99811.97;;;17.49
53412;BMP280;39307;52.870;13.660;2023-08-06T09:03:43;99813.59;;;17.50
53412;BMP280;39307;52.870;13.660;2023-08-06T09:06:11;99800.88;;;17.52
53412;BMP280;39307;52.870;13.660;2023-08-06T09:08:43;99802.00;;;17.56
53412;BMP280;39307;52.870;13.660;2023-08-06T09:11:13;99796.16;;;17.54
53412;BMP280;39307;52.870;13.660;2023-08-06T09:13:40;99788.22;;;17.54
53412;BMP280;39307;52.870;13.660;2023-08-06T09:16:06;99789.81;;;17.55
53412;BMP280;39307;52.870;13.660;2023-08-06T09:18:32;99787.72;;;17.57
53412;BMP280;39307;52.870;13.660;2023-08-06T09:20:59;99791.97;;;17.58
53412;BMP280;39307;52.870;13.660;2023-08-06T09:23:32;99790.13;;;17.59
53412;BMP280;39307;52.870;13.660;2023-08-06T09:25:59;99792.50;;;17.60
53412;BMP280;39307;52.870;13.660;2023-08-06T09:28:39;99789.63;;;17.62
53412;BMP280;39307;52.870;13.660;2023-08-06T09:31:06;99792.50;;;17.60
53412;BMP280;39307;52.870;13.660;2023-08-06T09:33:32;99784.50;;;17.55
53412;BMP280;39307;52.870;13.660;2023-08-06T09:36:08;99783.53;;;17.61
53412;BMP280;39307;52.870;13.660;2023-08-06T09:38:39;99787.00;;;17.62
53412;BMP280;39307;52.870;13.660;2023-08-06T09:41:05;99778.53;;;17.64
53412;BMP280;39307;52.870;13.660;2023-08-06T09:43:43;99781.22;;;17.69
53412;BMP280;39307;52.870;13.660;2023-08-06T09:46:13;99769.28;;;17.67
53412;BMP280;39307;52.870;13.660;2023-08-06T09:48:40;99774.59;;;17.67
53412;BMP280;39307;52.870;13.660;2023-08-06T09:51:09;99768.00;;;17.69
53412;BMP280;39307;52.870;13.660;2023-08-06T09:53:37;99763.00;;;17.73
53412;BMP280;39307;52.870;13.660;2023-08-06T09:56:04;99759.84;;;17.76
53412;BMP280;39307;52.870;13.660;2023-08-06T09:58:32;99758.28;;;17.80
53412;BMP280;39307;52.870;13.660;2023-08-06T10:00:59;99757.00;;;17.82
53412;BMP280;39307;52.870;13.660;2023-08-06T10:03:26;99742.72;;;17.83
53412;BMP280;39307;52.870;13.660;2023-08-06T10:05:58;99749.91;;;17.88
53412;BMP280;39307;52.870;13.660;2023-08-06T10:08:25;99754.41;;;17.87
53412;BMP280;39307;52.870;13.660;2023-08-06T10:10:51;99733.78;;;17.89
53412;BMP280;39307;52.870;13.660;2023-08-06T10:13:19;99729.53;;;17.88
53412;BMP280;39307;52.870;13.660;2023-08-06T10:15:47;99736.38;;;17.84
53412;BMP280;39307;52.870;13.660;2023-08-06T10:18:13;99736.59;;;17.83
53412;BMP280;39307;52.870;13.660;2023-08-06T10:20:41;99729.22;;;17.85
53412;BMP280;39307;52.870;13.660;2023-08-06T10:23:07;99726.63;;;17.90
53412;BMP280;39307;52.870;13.660;2023-08-06T10:25:35;99730.88;;;17.91
53412;BMP280;39307;52.870;13.660;2023-08-06T10:28:11;99722.13;;;17.90
53412;BMP280;39307;52.870;13.660;2023-08-06T10:30:56;99728.50;;;17.94
53412;BMP280;39307;52.870;13.660;2023-08-06T10:33:22;99726.66;;;17.94
53412;BMP280;39307;52.870;13.660;2023-08-06T10:35:49;99724.06;;;17.99
53412;BMP280;39307;52.870;13.660;2023-08-06T10:40:49;99723.59;;;18.02
53412;BMP280;39307;52.870;13.660;2023-08-06T10:43:34;99723.59;;;18.02
53412;BMP280;39307;52.870;13.660;2023-08-06T10:46:10;99717.50;;;18.02
53412;BMP280;39307;52.870;13.660;2023-08-06T10:48:39;99722.53;;;18.03
53412;BMP280;39307;52.870;13.660;2023-08-06T10:51:10;99717.00;;;18.05
53412;BMP280;39307;52.870;13.660;2023-08-06T10:53:37;99717.50;;;18.07
53412;BMP280;39307;52.870;13.660;2023-08-06T10:56:13;99710.91;;;18.04
53412;BMP280;39307;52.870;13.660;2023-08-06T10:58:41;99708.25;;;18.04
53412;BMP280;39307;52.870;13.660;2023-08-06T11:01:07;99706.69;;;18.08
53412;BMP280;39307;52.870;13.660;2023-08-06T11:03:34;99702.97;;;18.09
53412;BMP280;39307;52.870;13.660;2023-08-06T11:06:01;99699.03;;;18.12
53412;BMP280;39307;52.870;13.660;2023-08-06T11:08:28;99688.44;;;18.12
53412;BMP280;39307;52.870;13.660;2023-08-06T11:10:55;99691.34;;;18.10
53412;BMP280;39307;52.870;13.660;2023-08-06T11:13:21;99691.09;;;18.12
53412;BMP280;39307;52.870;13.660;2023-08-06T11:15:48;99682.63;;;18.15
53412;BMP280;39307;52.870;13.660;2023-08-06T11:18:14;99687.13;;;18.14
53412;BMP280;39307;52.870;13.660;2023-08-06T11:20:40;99683.19;;;18.17
53412;BMP280;39307;52.870;13.660;2023-08-06T11:23:10;99678.66;;;18.17
53412;BMP280;39307;52.870;13.660;2023-08-06T11:25:37;99667.00;;;18.18
53412;BMP280;39307;52.870;13.660;2023-08-06T11:28:11;99669.66;;;18.18
53412;BMP280;39307;52.870;13.660;2023-08-06T11:30:38;99666.22;;;18.18
53412;BMP280;39307;52.870;13.660;2023-08-06T11:33:08;99666.50;;;18.21
53412;BMP280;39307;52.870;13.660;2023-08-06T11:35:38;99660.47;;;18.25
53412;BMP280;39307;52.870;13.660;2023-08-06T11:38:04;99656.22;;;18.29
53412;BMP280;39307;52.870;13.660;2023-08-06T11:40:32;99652.28;;;18.32
53412;BMP280;39307;52.870;13.660;2023-08-06T11:42:58;99647.25;;;18.35
53412;BMP280;39307;52.870;13.660;2023-08-06T11:45:25;99649.63;;;18.37
53412;BMP280;39307;52.870;13.660;2023-08-06T11:47:52;99640.09;;;18.36
53412;BMP280;39307;52.870;13.660;2023-08-06T11:50:26;99648.59;;;18.38
53412;BMP280;39307;52.870;13.660;2023-08-06T11:52:58;99645.13;;;18.37
53412;BMP280;39307;52.870;13.660;2023-08-06T11:55:25;99639.31;;;18.35
53412;BMP280;39307;52.870;13.660;2023-08-06T11:57:52;99643.53;;;18.36
53412;BMP280;39307;52.870;13.660;2023-08-06T12:00:18;99639.31;;;18.35
53412;BMP280;39307;52.870;13.660;2023-08-06T12:02:46;99640.63;;;18.33
53412;BMP280;39307;52.870;13.660;2023-08-06T12:05:16;99641.41;;;18.33
53412;BMP280;39307;52.870;13.660;2023-08-06T12:07:45;99635.03;;;18.34
53412;BMP280;39307;52.870;13.660;2023-08-06T12:10:15;99633.47;;;18.33
53412;BMP280;39307;52.870;13.660;2023-08-06T12:12:42;99624.19;;;18.36
53412;BMP280;39307;52.870;13.660;2023-08-06T12:15:09;99636.34;;;18.27
53412;BMP280;39307;52.870;13.660;2023-08-06T12:17:37;99625.47;;;18.23
53412;BMP280;39307;52.870;13.660;2023-08-06T12:20:05;99636.28;;;18.17
53412;BMP280;39307;52.870;13.660;2023-08-06T12:22:32;99628.59;;;18.16
53412;BMP280;39307;52.870;13.660;2023-08-06T12:24:59;99623.56;;;18.14
53412;BMP280;39307;52.870;13.660;2023-08-06T12:27:25;99625.94;;;18.16
53412;BMP280;39307;52.870;13.660;2023-08-06T12:29:52;99616.97;;;18.17
53412;BMP280;39307;52.870;13.660;2023-08-06T12:32:18;99619.09;;;18.20
53412;BMP280;39307;52.870;13.660;2023-08-06T12:34:44;99620.41;;;18.17
53412;BMP280;39307;52.870;13.660;2023-08-06T12:37:10;99613.75;;;18.15
53412;BMP280;39307;52.870;13.660;2023-08-06T12:39:37;99624.88;;;18.12
53412;BMP280;39307;52.870;13.660;2023-08-06T12:42:05;99620.34;;;18.07
53412;BMP280;39307;52.870;13.660;2023-08-06T12:44:32;99618.22;;;18.09
53412;BMP280;39307;52.870;13.660;2023-08-06T12:46:59;99619.28;;;18.08
53412;BMP280;39307;52.870;13.660;2023-08-06T12:49:26;99621.94;;;18.08
53412;BMP280;39307;52.870;13.660;2023-08-06T12:51:53;99620.59;;;18.06
53412;BMP280;39307;52.870;13.660;2023-08-06T12:54:20;99619.53;;;18.02
53412;BMP280;39307;52.870;13.660;2023-08-06T12:56:47;99619.72;;;17.95
53412;BMP280;39307;52.870;13.660;2023-08-06T12:59:17;99620.22;;;17.92
53412;BMP280;39307;52.870;13.660;2023-08-06T13:01:44;99614.66;;;17.89
53412;BMP280;39307;52.870;13.660;2023-08-06T13:04:11;99614.06;;;17.82
53412;BMP280;39307;52.870;13.660;2023-08-06T13:06:37;99614.31;;;17.81
53412;BMP280;39307;52.870;13.660;2023-08-06T13:09:04;99611.09;;;17.74
53412;BMP280;39307;52.870;13.660;2023-08-06T13:11:31;99612.63;;;17.70
53412;BMP280;39307;52.870;13.660;2023-08-06T13:14:15;99606.81;;;17.68
53412;BMP280;39307;52.870;13.660;2023-08-06T13:16:43;99603.13;;;17.69
53412;BMP280;39307;52.870;13.660;2023-08-06T13:19:09;99609.47;;;17.68
53412;BMP280;39307;52.870;13.660;2023-08-06T13:24:08;99617.31;;;17.58
53412;BMP280;39307;52.870;13.660;2023-08-06T13:26:35;99625.25;;;17.58
53412;BMP280;39307;52.870;13.660;2023-08-06T13:29:01;99618.38;;;17.57
53412;BMP280;39307;52.870;13.660;2023-08-06T13:31:28;99610.38;;;17.52
53412;BMP280;39307;52.870;13.660;2023-08-06T13:33:55;99614.59;;;17.48
53412;BMP280;39307;52.870;13.660;2023-08-06T13:36:22;99616.69;;;17.46
53412;BMP280;39307;52.870;13.660;2023-08-06T13:38:48;99607.72;;;17.47
53412;BMP280;39307;52.870;13.660;2023-08-06T13:41:15;99611.44;;;17.51
53412;BMP280;39307;52.870;13.660;2023-08-06T13:43:41;99606.66;;;17.48
53412;BMP280;39307;52.870;13.660;2023-08-06T13:46:07;99608.75;;;17.46
53412;BMP280;39307;52.870;13.660;2023-08-06T13:48:34;99604.00;;;17.43
53412;BMP280;39307;52.870;13.660;2023-08-06T13:51:01;99609.28;;;17.43
53412;BMP280;39307;52.870;13.660;2023-08-06T13:53:30;99600.53;;;17.43
53412;BMP280;39307;52.870;13.660;2023-08-06T13:55:57;99600.53;;;17.43
53412;BMP280;39307;52.870;13.660;2023-08-06T13:58:23;99604.22;;;17.42
53412;BMP280;39307;52.870;13.660;2023-08-06T14:00:50;99601.28;;;17.38